sensor_id;sensor_type;location;lat;lon;timestamp;pressure;altitude;pressure_sealevel;temperature;humidity
41515;BME280;27247;48.020;16.720;2023-05-14T00:03:25;100247.56;;;10.61;100.00
41515;BME280;27247;48.020;16.720;2023-05-14T00:07:35;100239.03;;;10.58;100.00
41515;BME280;27247;48.020;16.720;2023-05-14T00:11:46;100239.03;;;10.58;100.00
41515;BME280;27247;48.020;16.720;2023-05-14T00:15:57;100236.53;;;10.56;100.00
41515;BME280;27247;48.020;16.720;2023-05-14T00:20:07;100220.16;;;10.51;100.00
41515;BME280;27247;48.020;16.720;2023-05-14T00:24:18;100226.16;;;10.45;100.00
41515;BME280;27247;48.020;16.720;2023-05-14T00:28:28;100217.78;;;10.40;100.00
41515;BME280;27247;48.020;16.720;2023-05-14T00:32:38;100219.94;;;10.36;100.00
41515;BME280;27247;48.020;16.720;2023-05-14T00:36:50;100215.28;;;10.38;100.00
41515;BME280;27247;48.020;16.720;2023-05-14T00:41:00;100201.06;;;10.30;100.00
41515;BME280;27247;48.020;16.720;2023-05-14T00:45:10;100205.75;;;10.28;100.00
41515;BME280;27247;48.020;16.720;2023-05-14T00:49:21;100198.22;;;10.23;100.00
41515;BME280;27247;48.020;16.720;2023-05-14T00:53:32;100194.69;;;10.14;100.00
41515;BME280;27247;48.020;16.720;2023-05-14T00:57:43;100178.97;;;10.11;100.00
41515;BME280;27247;48.020;16.720;2023-05-14T01:01:53;100188.97;;;10.01;100.00
41515;BME280;27247;48.020;16.720;2023-05-14T01:06:14;100182.94;;;9.91;100.00
41515;BME280;27247;48.020;16.720;2023-05-14T01:11:03;100176.91;;;9.81;100.00
41515;BME280;27247;48.020;16.720;2023-05-14T01:15:20;100178.22;;;9.77;100.00
41515;BME280;27247;48.020;16.720;2023-05-14T01:19:43;100184.91;;;9.81;100.00
41515;BME280;27247;48.020;16.720;2023-05-14T01:23:55;100175.06;;;9.73;100.00
41515;BME280;27247;48.020;16.720;2023-05-14T01:28:16;100176.88;;;9.73;100.00
41515;BME280;27247;48.020;16.720;2023-05-14T01:32:31;100173.69;;;9.69;100.00
41515;BME280;27247;48.020;16.720;2023-05-14T01:36:42;100168.38;;;9.69;100.00
41515;BME280;27247;48.020;16.720;2023-05-14T01:40:53;100172.72;;;9.70;100.00
41515;BME280;27247;48.020;16.720;2023-05-14T01:45:04;100176.22;;;9.71;100.00
41515;BME280;27247;48.020;16.720;2023-05-14T01:49:15;100169.38;;;9.76;100.00
41515;BME280;27247;48.020;16.720;2023-05-14T01:53:27;100170.91;;;9.79;100.00
41515;BME280;27247;48.020;16.720;2023-05-14T01:57:37;100163.06;;;9.77;100.00
41515;BME280;27247;48.020;16.720;2023-05-14T02:01:47;100159.38;;;9.78;100.00
41515;BME280;27247;48.020;16.720;2023-05-14T02:05:58;100160.22;;;9.79;100.00
41515;BME280;27247;48.020;16.720;2023-05-14T02:10:09;100151.34;;;9.70;100.00
41515;BME280;27247;48.020;16.720;2023-05-14T02:14:19;100154.22;;;9.77;100.00
41515;BME280;27247;48.020;16.720;2023-05-14T02:18:30;100151.88;;;9.74;100.00
41515;BME280;27247;48.020;16.720;2023-05-14T02:22:40;100145.84;;;9.64;100.00
41515;BME280;27247;48.020;16.720;2023-05-14T02:26:55;100140.47;;;9.55;100.00
41515;BME280;27247;48.020;16.720;2023-05-14T02:31:05;100140.44;;;9.47;100.00
41515;BME280;27247;48.020;16.720;2023-05-14T02:35:15;100133.94;;;9.50;100.00
41515;BME280;27247;48.020;16.720;2023-05-14T02:39:26;100123.28;;;9.50;100.00
41515;BME280;27247;48.020;16.720;2023-05-14T02:43:36;100133.78;;;9.51;100.00
41515;BME280;27247;48.020;16.720;2023-05-14T02:47:46;100132.47;;;9.55;100.00
41515;BME280;27247;48.020;16.720;2023-05-14T02:51:57;100133.97;;;9.58;100.00
41515;BME280;27247;48.020;16.720;2023-05-14T02:56:09;100127.47;;;9.60;100.00
41515;BME280;27247;48.020;16.720;2023-05-14T03:00:20;100137.31;;;9.60;100.00
41515;BME280;27247;48.020;16.720;2023-05-14T03:04:30;100132.97;;;9.59;100.00
41515;BME280;27247;48.020;16.720;2023-05-14T03:08:41;100135.31;;;9.62;100.00
41515;BME280;27247;48.020;16.720;2023-05-14T03:12:51;100137.66;;;9.57;100.00
41515;BME280;27247;48.020;16.720;2023-05-14T03:17:01;100142.97;;;9.57;100.00
41515;BME280;27247;48.020;16.720;2023-05-14T03:21:12;100132.97;;;9.59;100.00
41515;BME280;27247;48.020;16.720;2023-05-14T03:25:23;100129.31;;;9.60;100.00
41515;BME280;27247;48.020;16.720;2023-05-14T03:29:33;100128.34;;;9.69;100.00
41515;BME280;27247;48.020;16.720;2023-05-14T03:33:44;100120.16;;;9.71;100.00
41515;BME280;27247;48.020;16.720;2023-05-14T03:37:54;100110.50;;;9.70;100.00
41515;BME280;27247;48.020;16.720;2023-05-14T03:42:07;100112.16;;;9.71;100.00
41515;BME280;27247;48.020;16.720;2023-05-14T03:46:17;100107.31;;;9.66;100.00
41515;BME280;27247;48.020;16.720;2023-05-14T03:50:28;100108.81;;;9.69;100.00
41515;BME280;27247;48.020;16.720;2023-05-14T03:54:38;100094.50;;;9.70;100.00
41515;BME280;27247;48.020;16.720;2023-05-14T03:58:51;100093.81;;;9.68;100.00
41515;BME280;27247;48.020;16.720;2023-05-14T04:03:01;100084.13;;;9.67;100.00
41515;BME280;27247;48.020;16.720;2023-05-14T04:07:12;100081.16;;;9.70;100.00
41515;BME280;27247;48.020;16.720;2023-05-14T04:11:22;100079.16;;;9.72;100.00
41515;BME280;27247;48.020;16.720;2023-05-14T04:15:32;100078.63;;;9.68;100.00
41515;BME280;27247;48.020;16.720;2023-05-14T04:19:44;100091.66;;;9.71;100.00
41515;BME280;27247;48.020;16.720;2023-05-14T04:23:55;100079.81;;;9.74;100.00
41515;BME280;27247;48.020;16.720;2023-05-14T04:28:05;100090.66;;;9.80;100.00
41515;BME280;27247;48.020;16.720;2023-05-14T04:32:15;100083.66;;;9.79;100.00
41515;BME280;27247;48.020;16.720;2023-05-14T04:36:27;100092.84;;;9.85;100.00
41515;BME280;27247;48.020;16.720;2023-05-14T04:40:37;100083.50;;;9.89;100.00
41515;BME280;27247;48.020;16.720;2023-05-14T04:44:47;100091.03;;;9.93;100.00
41515;BME280;27247;48.020;16.720;2023-05-14T04:48:58;100089.53;;;9.99;100.00
41515;BME280;27247;48.020;16.720;2023-05-14T04:53:09;100094.38;;;10.04;100.00
41515;BME280;27247;48.020;16.720;2023-05-14T04:57:20;100106.03;;;10.03;100.00
41515;BME280;27247;48.020;16.720;2023-05-14T05:01:30;100092.19;;;10.07;100.00
41515;BME280;27247;48.020;16.720;2023-05-14T05:05:41;100099.72;;;10.12;100.00
41515;BME280;27247;48.020;16.720;2023-05-14T05:09:51;100098.53;;;10.14;100.00
41515;BME280;27247;48.020;16.720;2023-05-14T05:14:01;100093.41;;;10.21;100.00
41515;BME280;27247;48.020;16.720;2023-05-14T05:18:12;100101.09;;;10.24;100.00
41515;BME280;27247;48.020;16.720;2023-05-14T05:22:22;100092.03;;;10.17;100.00
41515;BME280;27247;48.020;16.720;2023-05-14T05:26:33;100101.72;;;10.18;100.00
41515;BME280;27247;48.020;16.720;2023-05-14T05:30:45;100092.56;;;10.20;100.00
41515;BME280;27247;48.020;16.720;2023-05-14T05:34:56;100094.19;;;10.13;100.00
41515;BME280;27247;48.020;16.720;2023-05-14T05:39:06;100088.03;;;10.05;100.00
41515;BME280;27247;48.020;16.720;2023-05-14T05:43:17;100087.53;;;10.01;100.00
41515;BME280;27247;48.020;16.720;2023-05-14T05:47:27;100087.50;;;9.93;100.00
41515;BME280;27247;48.020;16.720;2023-05-14T05:51:37;100084.50;;;9.88;100.00
41515;BME280;27247;48.020;16.720;2023-05-14T05:55:48;100082.31;;;9.75;100.00
41515;BME280;27247;48.020;16.720;2023-05-14T06:00:00;100081.16;;;9.70;100.00
41515;BME280;27247;48.020;16.720;2023-05-14T06:04:18;100086.47;;;9.62;100.00
41515;BME280;27247;48.020;16.720;2023-05-14T06:08:29;100082.13;;;9.60;100.00
41515;BME280;27247;48.020;16.720;2023-05-14T06:12:39;100075.59;;;9.47;100.00
41515;BME280;27247;48.020;16.720;2023-05-14T06:16:50;100076.44;;;9.47;100.00
41515;BME280;27247;48.020;16.720;2023-05-14T06:21:00;100069.41;;;9.46;100.00
41515;BME280;27247;48.020;16.720;2023-05-14T06:25:10;100071.09;;;9.47;100.00
41515;BME280;27247;48.020;16.720;2023-05-14T06:29:21;100063.59;;;9.51;100.00
41515;BME280;27247;48.020;16.720;2023-05-14T06:33:31;100063.41;;;9.44;100.00
41515;BME280;27247;48.020;16.720;2023-05-14T06:37:41;100069.59;;;9.45;100.00
41515;BME280;27247;48.020;16.720;2023-05-14T06:41:52;100067.56;;;9.39;100.00
41515;BME280;27247;48.020;16.720;2023-05-14T06:46:02;100068.41;;;9.39;100.00
41515;BME280;27247;48.020;16.720;2023-05-14T06:50:12;100071.91;;;9.40;100.00
41515;BME280;27247;48.020;16.720;2023-05-14T06:54:23;100080.41;;;9.43;100.00
41515;BME280;27247;48.020;16.720;2023-05-14T06:58:33;100076.69;;;9.36;100.00
41515;BME280;27247;48.020;16.720;2023-05-14T07:02:43;100070.56;;;9.44;100.00
41515;BME280;27247;48.020;16.720;2023-05-14T07:06:54;100062.91;;;9.41;100.00
41515;BME280;27247;48.020;16.720;2023-05-14T07:11:04;100071.56;;;9.43;100.00
41515;BME280;27247;48.020;16.720;2023-05-14T07:15:14;100069.22;;;9.40;100.00
41515;BME280;27247;48.020;16.720;2023-05-14T07:19:25;100060.41;;;9.39;100.00
41515;BME280;27247;48.020;16.720;2023-05-14T07:23:38;100049.56;;;9.41;100.00
41515;BME280;27247;48.020;16.720;2023-05-14T07:27:49;100040.72;;;9.40;100.00
41515;BME280;27247;48.020;16.720;2023-05-14T07:32:00;100039.91;;;9.40;100.00
41515;BME280;27247;48.020;16.720;2023-05-14T07:36:10;100046.06;;;9.40;100.00
41515;BME280;27247;48.020;16.720;2023-05-14T07:40:21;100049.41;;;9.42;100.00
41515;BME280;27247;48.020;16.720;2023-05-14T07:44:31;100037.06;;;9.41;100.00
41515;BME280;27247;48.020;16.720;2023-05-14T07:48:41;100030.25;;;9.47;100.00
41515;BME280;27247;48.020;16.720;2023-05-14T07:52:52;100025.91;;;9.46;100.00
41515;BME280;27247;48.020;16.720;2023-05-14T07:57:02;100021.56;;;9.45;100.00
41515;BME280;27247;48.020;16.720;2023-05-14T08:01:13;100016.41;;;9.43;100.00
41515;BME280;27247;48.020;16.720;2023-05-14T08:05:23;100010.72;;;9.38;100.00
41515;BME280;27247;48.020;16.720;2023-05-14T08:09:33;99986.03;;;9.36;100.00
41515;BME280;27247;48.020;16.720;2023-05-14T08:13:44;99993.19;;;9.36;100.00
41515;BME280;27247;48.020;16.720;2023-05-14T08:17:54;99999.84;;;9.32;100.00
41515;BME280;27247;48.020;16.720;2023-05-14T08:22:04;100005.00;;;9.33;100.00
41515;BME280;27247;48.020;16.720;2023-05-14T08:26:16;100011.56;;;9.39;100.00
41515;BME280;27247;48.020;16.720;2023-05-14T08:30:26;99996.91;;;9.43;100.00
41515;BME280;27247;48.020;16.720;2023-05-14T08:34:37;100001.75;;;9.47;100.00
41515;BME280;27247;48.020;16.720;2023-05-14T08:38:47;99981.75;;;9.51;100.00
41515;BME280;27247;48.020;16.720;2023-05-14T08:42:59;99976.91;;;9.55;100.00
41515;BME280;27247;48.020;16.720;2023-05-14T08:47:11;99978.56;;;9.56;100.00
41515;BME280;27247;48.020;16.720;2023-05-14T08:51:25;99981.91;;;9.66;100.00
41515;BME280;27247;48.020;16.720;2023-05-14T08:55:36;99979.41;;;9.65;100.00
41515;BME280;27247;48.020;16.720;2023-05-14T08:59:46;99989.59;;;9.69;100.00
41515;BME280;27247;48.020;16.720;2023-05-14T09:03:58;99984.06;;;9.63;100.00
41515;BME280;27247;48.020;16.720;2023-05-14T09:08:11;99988.75;;;9.69;100.00
41515;BME280;27247;48.020;16.720;2023-05-14T09:12:21;99979.91;;;9.68;100.00
41515;BME280;27247;48.020;16.720;2023-05-14T09:16:31;99976.56;;;9.74;100.00
41515;BME280;27247;48.020;16.720;2023-05-14T09:20:42;99981.75;;;9.84;100.00
41515;BME280;27247;48.020;16.720;2023-05-14T09:25:04;99973.75;;;9.84;100.00
41515;BME280;27247;48.020;16.720;2023-05-14T09:29:14;99968.91;;;9.87;100.00
41515;BME280;27247;48.020;16.720;2023-05-14T09:33:26;99959.22;;;9.95;100.00
41515;BME280;27247;48.020;16.720;2023-05-14T09:37:40;99957.38;;;9.95;100.00
41515;BME280;27247;48.020;16.720;2023-05-14T09:41:51;99953.53;;;9.98;100.00
41515;BME280;27247;48.020;16.720;2023-05-14T09:46:02;99947.34;;;10.05;100.00
41515;BME280;27247;48.020;16.720;2023-05-14T09:50:12;99942.69;;;10.07;100.00
41515;BME280;27247;48.020;16.720;2023-05-14T09:54:25;99941.81;;;10.15;100.00
41515;BME280;27247;48.020;16.720;2023-05-14T09:58:37;99939.16;;;10.15;100.00
41515;BME280;27247;48.020;16.720;2023-05-14T10:02:49;99932.00;;;10.23;100.00
41515;BME280;27247;48.020;16.720;2023-05-14T10:07:02;99920.13;;;10.26;100.00
41515;BME280;27247;48.020;16.720;2023-05-14T10:11:17;99913.97;;;10.26;100.00
41515;BME280;27247;48.020;16.720;2023-05-14T10:15:41;99907.28;;;10.30;100.00
41515;BME280;27247;48.020;16.720;2023-05-14T10:19:53;99900.25;;;10.29;100.00
41515;BME280;27247;48.020;16.720;2023-05-14T10:24:08;99886.38;;;10.33;100.00
41515;BME280;27247;48.020;16.720;2023-05-14T10:28:20;99881.88;;;10.42;100.00
41515;BME280;27247;48.020;16.720;2023-05-14T10:32:31;99890.34;;;10.53;100.00
41515;BME280;27247;48.020;16.720;2023-05-14T10:36:42;99882.81;;;10.57;100.00
41515;BME280;27247;48.020;16.720;2023-05-14T10:41:03;99878.44;;;10.64;100.00
41515;BME280;27247;48.020;16.720;2023-05-14T10:45:15;99873.75;;;10.66;100.00
41515;BME280;27247;48.020;16.720;2023-05-14T10:49:26;99870.31;;;10.80;100.00
41515;BME280;27247;48.020;16.720;2023-05-14T10:53:37;99871.81;;;10.83;100.00
41515;BME280;27247;48.020;16.720;2023-05-14T10:57:48;99862.13;;;10.82;100.00
41515;BME280;27247;48.020;16.720;2023-05-14T11:01:58;99864.44;;;10.85;100.00
41515;BME280;27247;48.020;16.720;2023-05-14T11:06:10;99859.28;;;10.83;100.00
41515;BME280;27247;48.020;16.720;2023-05-14T11:10:21;99860.41;;;10.89;100.00
41515;BME280;27247;48.020;16.720;2023-05-14T11:14:32;99855.13;;;10.81;100.00
41515;BME280;27247;48.020;16.720;2023-05-14T11:18:42;99863.00;;;10.74;100.00
41515;BME280;27247;48.020;16.720;2023-05-14T11:22:53;99855.13;;;10.81;100.00
41515;BME280;27247;48.020;16.720;2023-05-14T11:27:06;99841.16;;;10.71;100.00
41515;BME280;27247;48.020;16.720;2023-05-14T11:31:17;99849.00;;;10.72;100.00
41515;BME280;27247;48.020;16.720;2023-05-14T11:35:28;99849.78;;;10.81;100.00
41515;BME280;27247;48.020;16.720;2023-05-14T11:39:39;99836.81;;;10.93;100.00
41515;BME280;27247;48.020;16.720;2023-05-14T11:43:55;99831.41;;;11.01;100.00
41515;BME280;27247;48.020;16.720;2023-05-14T11:48:15;99823.41;;;11.01;100.00
41515;BME280;27247;48.020;16.720;2023-05-14T11:52:25;99826.72;;;11.03;100.00
41515;BME280;27247;48.020;16.720;2023-05-14T11:56:35;99818.53;;;11.04;100.00
41515;BME280;27247;48.020;16.720;2023-05-14T12:00:50;99799.19;;;11.17;100.00
41515;BME280;27247;48.020;16.720;2023-05-14T12:05:00;99794.56;;;11.11;100.00
41515;BME280;27247;48.020;16.720;2023-05-14T12:09:12;99781.19;;;11.11;100.00
41515;BME280;27247;48.020;16.720;2023-05-14T12:13:29;99789.22;;;11.11;100.00
41515;BME280;27247;48.020;16.720;2023-05-14T12:17:40;99758.69;;;11.05;100.00
41515;BME280;27247;48.020;16.720;2023-05-14T12:21:50;99759.97;;;11.09;100.00
41515;BME280;27247;48.020;16.720;2023-05-14T12:26:05;99744.13;;;11.08;100.00
41515;BME280;27247;48.020;16.720;2023-05-14T12:30:16;99733.78;;;11.05;100.00
41515;BME280;27247;48.020;16.720;2023-05-14T12:34:26;99728.34;;;11.13;100.00
41515;BME280;27247;48.020;16.720;2023-05-14T12:38:37;99727.28;;;11.22;100.00
41515;BME280;27247;48.020;16.720;2023-05-14T12:42:50;99733.56;;;11.29;100.00
41515;BME280;27247;48.020;16.720;2023-05-14T12:47:00;99733.84;;;11.34;100.00
41515;BME280;27247;48.020;16.720;2023-05-14T12:51:11;99730.88;;;11.29;100.00
41515;BME280;27247;48.020;16.720;2023-05-14T12:55:21;99742.31;;;11.23;100.00
41515;BME280;27247;48.020;16.720;2023-05-14T12:59:32;99747.84;;;11.22;100.00
41515;BME280;27247;48.020;16.720;2023-05-14T13:03:42;99729.75;;;11.24;100.00
41515;BME280;27247;48.020;16.720;2023-05-14T13:07:52;99736.41;;;11.28;100.00
41515;BME280;27247;48.020;16.720;2023-05-14T13:12:03;99749.06;;;11.34;100.00
41515;BME280;27247;48.020;16.720;2023-05-14T13:16:14;99744.53;;;11.34;100.00
41515;BME280;27247;48.020;16.720;2023-05-14T13:20:25;99723.97;;;11.35;100.00
41515;BME280;27247;48.020;16.720;2023-05-14T13:24:38;99721.94;;;11.37;100.00
41515;BME280;27247;48.020;16.720;2023-05-14T13:28:50;99719.91;;;11.39;100.00
41515;BME280;27247;48.020;16.720;2023-05-14T13:33:00;99725.81;;;11.34;100.00
41515;BME280;27247;48.020;16.720;2023-05-14T13:37:11;99725.81;;;11.34;100.00
41515;BME280;27247;48.020;16.720;2023-05-14T13:41:21;99719.25;;;11.37;100.00
41515;BME280;27247;48.020;16.720;2023-05-14T13:45:31;99716.75;;;11.35;100.00
41515;BME280;27247;48.020;16.720;2023-05-14T13:49:42;99716.75;;;11.35;100.00
41515;BME280;27247;48.020;16.720;2023-05-14T13:53:52;99703.94;;;11.31;100.00
41515;BME280;27247;48.020;16.720;2023-05-14T13:58:03;99717.78;;;11.34;100.00
41515;BME280;27247;48.020;16.720;2023-05-14T14:02:13;99712.44;;;11.34;100.00
41515;BME280;27247;48.020;16.720;2023-05-14T14:06:25;99694.53;;;11.35;100.00
41515;BME280;27247;48.020;16.720;2023-05-14T14:10:37;99692.03;;;11.33;100.00
41515;BME280;27247;48.020;16.720;2023-05-14T14:14:49;99678.66;;;11.33;100.00
41515;BME280;27247;48.020;16.720;2023-05-14T14:19:00;99678.13;;;11.23;100.00
41515;BME280;27247;48.020;16.720;2023-05-14T14:23:10;99681.81;;;11.22;100.00
41515;BME280;27247;48.020;16.720;2023-05-14T14:27:22;99684.38;;;11.15;100.00
41515;BME280;27247;48.020;16.720;2023-05-14T14:31:35;99675.53;;;11.15;100.00
41515;BME280;27247;48.020;16.720;2023-05-14T14:35:45;99670.63;;;11.18;100.00
41515;BME280;27247;48.020;16.720;2023-05-14T14:39:56;99667.59;;;11.22;100.00
41515;BME280;27247;48.020;16.720;2023-05-14T14:44:06;99661.22;;;11.23;100.00
41515;BME280;27247;48.020;16.720;2023-05-14T14:48:31;99658.81;;;11.13;100.00
41515;BME280;27247;48.020;16.720;2023-05-14T14:52:43;99657.25;;;11.04;100.00
41515;BME280;27247;48.020;16.720;2023-05-14T14:56:54;99639.91;;;11.00;100.00
41515;BME280;27247;48.020;16.720;2023-05-14T15:01:05;99638.81;;;10.94;100.00
41515;BME280;27247;48.020;16.720;2023-05-14T15:05:15;99629.59;;;10.97;100.00
41515;BME280;27247;48.020;16.720;2023-05-14T15:09:25;99635.84;;;10.89;100.00
41515;BME280;27247;48.020;16.720;2023-05-14T15:13:36;99624.16;;;10.90;100.00
41515;BME280;27247;48.020;16.720;2023-05-14T15:17:46;99620.91;;;10.95;100.00
41515;BME280;27247;48.020;16.720;2023-05-14T15:21:57;99606.72;;;10.94;100.00
41515;BME280;27247;48.020;16.720;2023-05-14T15:26:07;99597.22;;;10.92;100.00
41515;BME280;27247;48.020;16.720;2023-05-14T15:30:17;99591.22;;;10.90;100.00
41515;BME280;27247;48.020;16.720;2023-05-14T15:34:28;99592.53;;;10.94;100.00
41515;BME280;27247;48.020;16.720;2023-05-14T15:38:38;99590.03;;;10.92;100.00
41515;BME280;27247;48.020;16.720;2023-05-14T15:42:49;99579.53;;;10.91;100.00
41515;BME280;27247;48.020;16.720;2023-05-14T15:46:59;99579.34;;;10.92;100.00
41515;BME280;27247;48.020;16.720;2023-05-14T15:51:10;99574.81;;;10.93;100.00
41515;BME280;27247;48.020;16.720;2023-05-14T15:55:20;99572.06;;;11.01;100.00
41515;BME280;27247;48.020;16.720;2023-05-14T15:59:30;99584.31;;;11.10;100.00
41515;BME280;27247;48.020;16.720;2023-05-14T16:03:41;99565.41;;;11.11;100.00
41515;BME280;27247;48.020;16.720;2023-05-14T16:07:51;99563.56;;;11.12;100.00
41515;BME280;27247;48.020;16.720;2023-05-14T16:12:02;99559.59;;;11.08;100.00
41515;BME280;27247;48.020;16.720;2023-05-14T16:16:13;99552.59;;;11.07;100.00
41515;BME280;27247;48.020;16.720;2023-05-14T16:20:25;99542.19;;;11.12;100.00
41515;BME280;27247;48.020;16.720;2023-05-14T16:24:35;99534.16;;;11.12;100.00
41515;BME280;27247;48.020;16.720;2023-05-14T16:28:45;99533.78;;;11.15;100.00
41515;BME280;27247;48.020;16.720;2023-05-14T16:32:56;99530.09;;;11.16;100.00
41515;BME280;27247;48.020;16.720;2023-05-14T16:37:06;99532.75;;;11.16;100.00
41515;BME280;27247;48.020;16.720;2023-05-14T16:41:17;99526.41;;;11.17;100.00
41515;BME280;27247;48.020;16.720;2023-05-14T16:45:32;99524.09;;;11.14;100.00
41515;BME280;27247;48.020;16.720;2023-05-14T16:49:44;99518.84;;;11.20;100.00
41515;BME280;27247;48.020;16.720;2023-05-14T16:53:54;99518.84;;;11.20;100.00
41515;BME280;27247;48.020;16.720;2023-05-14T16:58:04;99518.19;;;11.18;100.00
41515;BME280;27247;48.020;16.720;2023-05-14T17:02:15;99511.44;;;11.23;100.00
41515;BME280;27247;48.020;16.720;2023-05-14T17:06:25;99503.25;;;11.24;100.00
41515;BME280;27247;48.020;16.720;2023-05-14T17:10:36;99509.03;;;11.28;100.00
41515;BME280;27247;48.020;16.720;2023-05-14T17:14:46;99512.16;;;11.31;100.00
41515;BME280;27247;48.020;16.720;2023-05-14T17:18:57;99512.34;;;11.30;100.00
41515;BME280;27247;48.020;16.720;2023-05-14T17:23:07;99503.69;;;11.28;100.00
41515;BME280;27247;48.020;16.720;2023-05-14T17:27:17;99496.50;;;11.28;100.00
41515;BME280;27247;48.020;16.720;2023-05-14T17:31:28;99487.72;;;11.34;100.00
41515;BME280;27247;48.020;16.720;2023-05-14T17:35:38;99484.13;;;11.27;100.00
41515;BME280;27247;48.020;16.720;2023-05-14T17:39:49;99485.34;;;11.25;100.00
41515;BME280;27247;48.020;16.720;2023-05-14T17:44:00;99488.84;;;11.25;100.00
41515;BME280;27247;48.020;16.720;2023-05-14T17:48:10;99486.16;;;11.25;100.00
41515;BME280;27247;48.020;16.720;2023-05-14T17:52:21;99480.44;;;11.28;100.00
41515;BME280;27247;48.020;16.720;2023-05-14T17:56:32;99470.19;;;11.32;100.00
41515;BME280;27247;48.020;16.720;2023-05-14T18:00:42;99463.81;;;11.33;100.00
41515;BME280;27247;48.020;16.720;2023-05-14T18:04:53;99467.25;;;11.27;100.00
41515;BME280;27247;48.020;16.720;2023-05-14T18:09:03;99460.97;;;11.34;100.00
41515;BME280;27247;48.020;16.720;2023-05-14T18:13:14;99473.13;;;11.37;100.00
41515;BME280;27247;48.020;16.720;2023-05-14T18:17:24;99460.97;;;11.34;100.00
41515;BME280;27247;48.020;16.720;2023-05-14T18:21:35;99458.66;;;11.31;100.00
41515;BME280;27247;48.020;16.720;2023-05-14T18:25:45;99460.31;;;11.32;100.00
41515;BME280;27247;48.020;16.720;2023-05-14T18:29:57;99455.16;;;11.31;100.00
41515;BME280;27247;48.020;16.720;2023-05-14T18:34:07;99455.53;;;11.28;100.00
41515;BME280;27247;48.020;16.720;2023-05-14T18:38:18;99447.53;;;11.28;100.00
41515;BME280;27247;48.020;16.720;2023-05-14T18:42:29;99450.56;;;11.25;100.00
41515;BME280;27247;48.020;16.720;2023-05-14T18:46:40;99429.31;;;11.38;100.00
41515;BME280;27247;48.020;16.720;2023-05-14T18:50:50;99416.91;;;11.51;100.00
41515;BME280;27247;48.020;16.720;2023-05-14T18:55:00;99422.84;;;11.47;100.00
41515;BME280;27247;48.020;16.720;2023-05-14T18:59:11;99430.28;;;11.51;100.00
41515;BME280;27247;48.020;16.720;2023-05-14T19:03:22;99394.97;;;11.41;100.00
41515;BME280;27247;48.020;16.720;2023-05-14T19:07:32;99390.25;;;11.43;100.00
41515;BME280;27247;48.020;16.720;2023-05-14T19:11:45;99399.31;;;11.42;100.00
41515;BME280;27247;48.020;16.720;2023-05-14T19:15:56;99397.97;;;11.32;100.00
41515;BME280;27247;48.020;16.720;2023-05-14T19:20:07;99410.31;;;11.33;100.00
41515;BME280;27247;48.020;16.720;2023-05-14T19:24:18;99414.22;;;11.30;100.00
41515;BME280;27247;48.020;16.720;2023-05-14T19:28:28;99433.25;;;11.20;100.00
41515;BME280;27247;48.020;16.720;2023-05-14T19:32:38;99438.16;;;11.17;100.00
41515;BME280;27247;48.020;16.720;2023-05-14T19:36:49;99438.06;;;11.10;100.00
41515;BME280;27247;48.020;16.720;2023-05-14T19:40:59;99418.25;;;11.05;100.00
41515;BME280;27247;48.020;16.720;2023-05-14T19:45:10;99405.16;;;11.10;100.00
41515;BME280;27247;48.020;16.720;2023-05-14T19:49:20;99399.50;;;11.19;100.00
41515;BME280;27247;48.020;16.720;2023-05-14T19:53:31;99402.94;;;11.13;100.00
41515;BME280;27247;48.020;16.720;2023-05-14T19:57:41;99382.44;;;11.20;100.00
41515;BME280;27247;48.020;16.720;2023-05-14T20:01:52;99385.34;;;11.26;100.00
41515;BME280;27247;48.020;16.720;2023-05-14T20:06:03;99395.50;;;11.30;100.00
41515;BME280;27247;48.020;16.720;2023-05-14T20:10:14;99376.72;;;11.45;100.00
41515;BME280;27247;48.020;16.720;2023-05-14T20:14:24;99368.75;;;11.51;100.00
41515;BME280;27247;48.020;16.720;2023-05-14T20:18:35;99367.28;;;11.49;100.00
41515;BME280;27247;48.020;16.720;2023-05-14T20:22:45;99366.84;;;11.45;100.00
41515;BME280;27247;48.020;16.720;2023-05-14T20:26:55;99365.53;;;11.41;100.00
41515;BME280;27247;48.020;16.720;2023-05-14T20:31:06;99374.97;;;11.37;100.00
41515;BME280;27247;48.020;16.720;2023-05-14T20:35:16;99373.31;;;11.36;100.00
41515;BME280;27247;48.020;16.720;2023-05-14T20:39:27;99359.31;;;11.34;100.00
41515;BME280;27247;48.020;16.720;2023-05-14T20:43:37;99358.94;;;11.37;100.00
41515;BME280;27247;48.020;16.720;2023-05-14T20:47:47;99355.41;;;11.37;100.00
41515;BME280;27247;48.020;16.720;2023-05-14T20:51:58;99354.28;;;11.46;100.00
41515;BME280;27247;48.020;16.720;2023-05-14T20:56:08;99343.78;;;11.44;100.00
41515;BME280;27247;48.020;16.720;2023-05-14T21:00:19;99334.22;;;11.57;100.00
41515;BME280;27247;48.020;16.720;2023-05-14T21:04:29;99323.31;;;11.58;100.00
41515;BME280;27247;48.020;16.720;2023-05-14T21:08:40;99357.81;;;11.46;100.00
41515;BME280;27247;48.020;16.720;2023-05-14T21:12:50;99364.81;;;11.47;100.00
41515;BME280;27247;48.020;16.720;2023-05-14T21:17:01;99352.34;;;11.40;100.00
41515;BME280;27247;48.020;16.720;2023-05-14T21:21:12;99312.16;;;11.55;100.00
41515;BME280;27247;48.020;16.720;2023-05-14T21:25:23;99286.88;;;11.57;100.00
41515;BME280;27247;48.020;16.720;2023-05-14T21:29:33;99292.56;;;11.47;100.00
41515;BME280;27247;48.020;16.720;2023-05-14T21:33:43;99253.31;;;11.55;100.00
41515;BME280;27247;48.020;16.720;2023-05-14T21:37:54;99262.75;;;11.50;100.00